createdAt,value
2018-09-11T00:02:01.663Z,16.20
2018-09-11T00:04:29.940Z,16.20
2018-09-11T00:06:58.122Z,16.20
2018-09-11T00:09:26.311Z,16.20
2018-09-11T00:11:54.520Z,16.20
2018-09-11T00:14:22.700Z,16.20
2018-09-11T00:16:50.914Z,16.20
2018-09-11T00:19:19.125Z,16.20
2018-09-11T00:21:47.351Z,16.20
2018-09-11T00:24:15.547Z,16.20
2018-09-11T00:26:43.716Z,16.20
2018-09-11T00:29:11.911Z,16.20
2018-09-11T00:31:40.097Z,16.20
2018-09-11T00:34:09.299Z,16.20
2018-09-11T00:36:37.507Z,16.20
2018-09-11T00:39:06.489Z,16.10
2018-09-11T00:41:34.810Z,16.10
2018-09-11T00:44:02.967Z,16.10
2018-09-11T00:46:31.223Z,16.10
2018-09-11T00:48:59.397Z,16.10
2018-09-11T00:51:27.603Z,16.10
2018-09-11T00:53:55.784Z,16.10
2018-09-11T00:56:23.999Z,16.10
2018-09-11T00:58:52.390Z,16.10
2018-09-11T01:01:20.709Z,16.10
2018-09-11T01:03:49.144Z,16.10
2018-09-11T01:06:17.463Z,16.10
2018-09-11T01:08:45.650Z,16.10
2018-09-11T01:11:13.873Z,16.10
2018-09-11T01:13:42.055Z,16.10
2018-09-11T01:16:10.545Z,16.10
2018-09-11T01:18:38.760Z,16.10
2018-09-11T01:21:06.942Z,16.10
2018-09-11T01:23:35.350Z,16.10
2018-09-11T01:26:03.556Z,16.10
2018-09-11T01:28:31.752Z,16.10
2018-09-11T01:30:59.954Z,16.10
2018-09-11T01:33:28.146Z,16.10
2018-09-11T01:35:56.338Z,16.10
2018-09-11T01:38:24.502Z,16.10
2018-09-11T01:40:52.691Z,16.10
2018-09-11T01:43:20.880Z,16.10
2018-09-11T01:45:49.063Z,16.00
2018-09-11T01:48:17.252Z,16.00
2018-09-11T01:50:45.428Z,16.00
2018-09-11T01:53:13.633Z,16.00
2018-09-11T01:55:41.787Z,16.00
2018-09-11T01:58:09.972Z,16.00
2018-09-11T02:00:38.271Z,16.00
2018-09-11T02:03:06.467Z,16.00
2018-09-11T02:05:34.696Z,16.00
2018-09-11T02:08:02.914Z,15.90
2018-09-11T02:10:31.087Z,15.90
2018-09-11T02:12:59.284Z,15.90
2018-09-11T02:15:27.550Z,15.90
2018-09-11T02:17:55.749Z,15.90
2018-09-11T02:20:23.982Z,15.90
2018-09-11T02:22:52.163Z,15.90
2018-09-11T02:25:20.364Z,15.90
2018-09-11T02:27:48.551Z,15.80
2018-09-11T02:30:16.727Z,15.80
2018-09-11T02:32:44.904Z,15.80
2018-09-11T02:35:13.083Z,15.80
2018-09-11T02:37:41.283Z,15.80
2018-09-11T02:40:09.487Z,15.80
2018-09-11T02:42:37.684Z,15.80
2018-09-11T02:45:06.004Z,15.80
2018-09-11T02:47:34.162Z,15.80
2018-09-11T02:50:02.472Z,15.80
2018-09-11T02:52:30.672Z,15.70
2018-09-11T02:54:58.940Z,15.70
2018-09-11T02:57:27.116Z,15.70
2018-09-11T02:59:55.288Z,15.70
2018-09-11T03:02:23.481Z,15.70
2018-09-11T03:04:51.756Z,15.70
2018-09-11T03:07:19.996Z,15.70
2018-09-11T03:09:48.196Z,15.70
2018-09-11T03:12:16.388Z,15.70
2018-09-11T03:14:44.564Z,15.60
2018-09-11T03:17:12.735Z,15.60
2018-09-11T03:19:40.928Z,15.60
2018-09-11T03:22:09.104Z,15.60
2018-09-11T03:24:37.315Z,15.60
2018-09-11T03:27:05.523Z,15.60
2018-09-11T03:29:33.729Z,15.60
2018-09-11T03:32:01.913Z,15.60
2018-09-11T03:34:30.128Z,15.60
2018-09-11T03:36:58.304Z,15.60
2018-09-11T03:39:26.501Z,15.60
2018-09-11T03:41:54.697Z,15.60
2018-09-11T03:44:23.009Z,15.60
2018-09-11T03:46:51.131Z,15.60
2018-09-11T03:49:19.356Z,15.60
2018-09-11T03:51:47.544Z,15.60
2018-09-11T03:54:15.735Z,15.60
2018-09-11T03:56:43.931Z,15.60
2018-09-11T03:59:12.154Z,15.60
2018-09-11T04:01:40.311Z,15.60
2018-09-11T04:04:08.508Z,15.60
2018-09-11T04:06:36.695Z,15.60
2018-09-11T04:09:08.476Z,15.60
2018-09-11T04:11:36.665Z,15.60
2018-09-11T04:14:04.852Z,15.60
2018-09-11T04:16:33.335Z,15.60
2018-09-11T04:19:01.532Z,15.60
2018-09-11T04:21:29.822Z,15.60
2018-09-11T04:23:58.259Z,15.60
2018-09-11T04:26:26.532Z,15.60
2018-09-11T04:28:54.875Z,15.60
2018-09-11T04:31:23.153Z,15.60
2018-09-11T04:33:51.792Z,15.60
2018-09-11T04:36:20.563Z,15.60
2018-09-11T04:38:48.705Z,15.60
2018-09-11T04:41:16.875Z,15.60
2018-09-11T04:43:45.093Z,15.60
2018-09-11T04:46:13.321Z,15.60
2018-09-11T04:48:43.292Z,15.70
2018-09-11T04:51:11.486Z,15.60
2018-09-11T04:53:39.680Z,15.70
2018-09-11T04:56:08.045Z,15.70
2018-09-11T04:58:36.461Z,15.60
2018-09-11T05:01:04.695Z,15.60
2018-09-11T05:03:33.051Z,15.70
2018-09-11T05:06:01.280Z,15.70
2018-09-11T05:08:29.710Z,15.70
2018-09-11T05:10:57.904Z,15.70
2018-09-11T05:13:26.104Z,15.70
2018-09-11T05:15:54.303Z,15.70
2018-09-11T05:18:22.512Z,15.70
2018-09-11T05:20:50.737Z,15.70
2018-09-11T05:23:18.921Z,15.70
2018-09-11T05:25:47.163Z,15.70
2018-09-11T05:28:15.353Z,15.70
2018-09-11T05:30:43.576Z,15.80
2018-09-11T05:33:11.807Z,15.80
2018-09-11T05:35:39.976Z,15.80
2018-09-11T05:38:08.256Z,15.80
2018-09-11T05:40:36.439Z,15.80
2018-09-11T05:43:04.643Z,15.80
2018-09-11T05:45:32.856Z,15.90
2018-09-11T05:48:01.052Z,15.90
2018-09-11T05:50:29.328Z,15.90
2018-09-11T05:52:57.525Z,15.90
2018-09-11T05:55:25.704Z,15.90
2018-09-11T05:57:53.900Z,15.90
2018-09-11T06:00:22.082Z,15.90
2018-09-11T06:02:50.311Z,16.00
2018-09-11T06:05:18.623Z,16.00
2018-09-11T06:07:46.831Z,16.00
2018-09-11T06:10:15.036Z,16.00
2018-09-11T06:12:43.258Z,16.10
2018-09-11T06:15:11.447Z,16.10
2018-09-11T06:17:39.637Z,16.10
2018-09-11T06:20:07.816Z,16.10
2018-09-11T06:22:36.225Z,16.20
2018-09-11T06:25:04.427Z,16.20
2018-09-11T06:27:32.613Z,16.20
2018-09-11T06:30:00.816Z,16.30
2018-09-11T06:32:29.080Z,16.30
2018-09-11T06:34:57.273Z,16.30
2018-09-11T06:37:25.461Z,16.40
2018-09-11T06:39:53.664Z,16.40
2018-09-11T06:42:21.864Z,16.40
2018-09-11T06:44:50.171Z,16.40
2018-09-11T06:47:18.311Z,16.40
2018-09-11T06:49:46.514Z,16.50
2018-09-11T06:52:14.703Z,16.50
2018-09-11T06:54:43.023Z,16.50
2018-09-11T06:57:11.213Z,16.60
2018-09-11T06:59:39.664Z,16.60
2018-09-11T07:02:07.907Z,16.60
2018-09-11T07:04:36.059Z,16.60
2018-09-11T07:07:04.269Z,16.70
2018-09-11T07:09:32.556Z,16.70
2018-09-11T07:12:00.741Z,16.70
2018-09-11T07:14:29.011Z,16.80
2018-09-11T07:16:57.199Z,16.80
2018-09-11T07:19:25.399Z,16.80
2018-09-11T07:21:53.587Z,16.90
2018-09-11T07:24:21.772Z,16.90
2018-09-11T07:26:49.997Z,17.00
2018-09-11T07:29:18.260Z,17.00
2018-09-11T07:31:46.456Z,17.00
2018-09-11T07:34:14.647Z,17.10
2018-09-11T07:36:43.008Z,17.10
2018-09-11T07:39:11.184Z,17.20
2018-09-11T07:41:39.376Z,17.20
2018-09-11T07:44:07.539Z,17.20
2018-09-11T07:46:35.789Z,17.30
2018-09-11T07:49:03.972Z,17.30
2018-09-11T07:51:32.149Z,17.30
2018-09-11T07:54:00.319Z,17.40
2018-09-11T07:56:28.553Z,17.40
2018-09-11T07:58:56.744Z,17.40
2018-09-11T08:01:24.910Z,17.50
2018-09-11T08:03:53.114Z,17.50
2018-09-11T08:06:21.330Z,17.50
2018-09-11T08:08:49.568Z,17.60
2018-09-11T08:11:17.814Z,17.60
2018-09-11T08:13:46.012Z,17.60
2018-09-11T08:16:14.193Z,17.60
2018-09-11T08:18:42.415Z,17.70
2018-09-11T08:21:10.611Z,17.70
2018-09-11T08:23:38.885Z,17.80
2018-09-11T08:26:07.101Z,17.80
2018-09-11T08:28:35.292Z,17.90
2018-09-11T08:31:03.502Z,17.90
2018-09-11T08:33:31.688Z,18.00
2018-09-11T08:35:59.868Z,18.10
2018-09-11T08:38:28.115Z,18.10
2018-09-11T08:40:56.345Z,18.20
2018-09-11T08:43:24.503Z,18.20
2018-09-11T08:45:52.701Z,18.30
2018-09-11T08:48:20.928Z,18.30
2018-09-11T08:50:49.110Z,18.40
2018-09-11T08:53:17.300Z,18.40
2018-09-11T08:55:45.475Z,18.50
2018-09-11T08:58:13.660Z,18.50
2018-09-11T09:00:41.844Z,18.60
2018-09-11T09:03:10.013Z,18.60
2018-09-11T09:05:38.199Z,18.70
2018-09-11T09:08:06.412Z,18.70
2018-09-11T09:10:34.585Z,18.70
2018-09-11T09:13:02.776Z,18.80
2018-09-11T09:15:30.987Z,18.80
2018-09-11T09:17:59.137Z,18.90
2018-09-11T09:20:27.368Z,19.00
2018-09-11T09:22:55.556Z,19.10
2018-09-11T09:25:23.848Z,19.10
2018-09-11T09:27:52.046Z,19.20
2018-09-11T09:30:20.390Z,19.20
2018-09-11T09:32:48.616Z,19.30
2018-09-11T09:35:16.813Z,19.30
2018-09-11T09:37:44.997Z,19.40
2018-09-11T09:40:13.176Z,19.50
2018-09-11T09:42:41.356Z,19.60
2018-09-11T09:45:09.809Z,19.60
2018-09-11T09:47:38.031Z,19.70
2018-09-11T09:50:06.327Z,19.80
2018-09-11T09:52:34.540Z,19.90
2018-09-11T09:55:02.721Z,19.90
2018-09-11T09:57:30.939Z,20.00
2018-09-11T09:59:59.128Z,20.20
2018-09-11T10:02:27.328Z,20.20
2018-09-11T10:04:55.567Z,20.30
2018-09-11T10:07:24.224Z,20.40
2018-09-11T10:09:53.095Z,20.50
2018-09-11T10:12:21.301Z,20.60
2018-09-11T10:14:49.507Z,20.70
2018-09-11T10:17:17.692Z,20.70
2018-09-11T10:19:45.929Z,20.80
2018-09-11T10:22:14.127Z,20.90
2018-09-11T10:24:42.346Z,20.90
2018-09-11T10:27:10.815Z,21.00
2018-09-11T10:29:39.001Z,21.00
2018-09-11T10:32:07.236Z,21.10
2018-09-11T10:34:35.469Z,21.20
2018-09-11T10:37:03.680Z,21.30
2018-09-11T10:39:31.928Z,21.30
2018-09-11T10:42:00.110Z,21.40
2018-09-11T10:44:28.272Z,21.40
2018-09-11T10:46:56.477Z,21.50
2018-09-11T10:49:24.645Z,21.50
2018-09-11T10:51:52.845Z,21.60
2018-09-11T10:54:21.008Z,21.60
2018-09-11T10:56:49.211Z,21.70
2018-09-11T10:59:17.552Z,21.80
2018-09-11T11:01:45.731Z,21.80
2018-09-11T11:04:13.933Z,21.80
2018-09-11T11:06:42.136Z,21.90
2018-09-11T11:09:11.195Z,21.90
2018-09-11T11:11:39.573Z,22.00
2018-09-11T11:14:08.251Z,22.10
2018-09-11T11:16:36.436Z,22.20
2018-09-11T11:19:04.808Z,22.20
2018-09-11T11:21:32.994Z,22.30
2018-09-11T11:24:01.198Z,22.30
2018-09-11T11:26:29.463Z,22.30
2018-09-11T11:28:57.637Z,22.40
2018-09-11T11:31:25.878Z,22.40
2018-09-11T11:33:54.080Z,22.40
2018-09-11T11:36:22.468Z,22.50
2018-09-11T11:38:50.484Z,22.50
2018-09-11T11:41:19.320Z,22.50
2018-09-11T11:43:47.550Z,22.60
2018-09-11T11:46:15.760Z,22.70
2018-09-11T11:48:43.937Z,22.70
2018-09-11T11:51:12.157Z,22.80
2018-09-11T11:53:40.387Z,22.90
2018-09-11T11:56:08.936Z,22.90
2018-09-11T11:58:37.125Z,23.00
2018-09-11T12:01:05.419Z,23.10
2018-09-11T12:03:33.692Z,23.10
2018-09-11T12:06:02.167Z,23.20
2018-09-11T12:08:31.028Z,23.20
2018-09-11T12:10:59.260Z,23.30
2018-09-11T12:13:27.461Z,23.40
2018-09-11T12:15:55.684Z,23.40
2018-09-11T12:18:23.889Z,23.40
2018-09-11T12:20:52.065Z,23.50
2018-09-11T12:23:20.286Z,23.50
2018-09-11T12:25:48.492Z,23.60
2018-09-11T12:28:16.692Z,23.60
2018-09-11T12:30:44.922Z,23.70
2018-09-11T12:33:13.122Z,23.70
2018-09-11T12:35:41.311Z,23.70
2018-09-11T12:38:09.506Z,23.70
2018-09-11T12:40:37.678Z,23.70
2018-09-11T12:43:05.912Z,23.70
2018-09-11T12:45:34.108Z,23.70
2018-09-11T12:48:02.780Z,23.70
2018-09-11T12:50:30.661Z,23.70
2018-09-11T12:52:58.874Z,23.70
2018-09-11T12:55:27.056Z,23.70
2018-09-11T12:57:55.215Z,23.70
2018-09-11T13:00:23.449Z,23.80
2018-09-11T13:02:51.664Z,23.80
2018-09-11T13:05:19.880Z,23.80
2018-09-11T13:07:48.089Z,23.80
2018-09-11T13:10:16.276Z,23.80
2018-09-11T13:12:44.444Z,23.80
2018-09-11T13:15:12.720Z,23.80
2018-09-11T13:17:40.851Z,23.90
2018-09-11T13:20:09.040Z,23.90
2018-09-11T13:22:37.291Z,23.90
2018-09-11T13:25:05.503Z,24.00
2018-09-11T13:27:33.709Z,24.00
2018-09-11T13:30:01.897Z,24.00
2018-09-11T13:32:30.172Z,24.00
2018-09-11T13:34:58.360Z,24.00
2018-09-11T13:37:26.653Z,24.00
2018-09-11T13:39:54.856Z,24.00
2018-09-11T13:42:23.061Z,24.00
2018-09-11T13:44:51.248Z,24.00
2018-09-11T13:47:19.517Z,23.90
2018-09-11T13:49:47.661Z,23.90
2018-09-11T13:52:15.850Z,23.90
2018-09-11T13:54:44.037Z,23.80
2018-09-11T13:57:12.298Z,23.80
2018-09-11T13:59:40.713Z,23.70
2018-09-11T14:02:08.888Z,23.70
2018-09-11T14:04:37.068Z,23.70
2018-09-11T14:07:05.250Z,23.70
2018-09-11T14:09:33.457Z,23.60
2018-09-11T14:12:01.635Z,23.50
2018-09-11T14:14:29.860Z,23.50
2018-09-11T14:16:58.093Z,23.50
2018-09-11T14:19:26.281Z,23.50
2018-09-11T14:21:54.494Z,23.40
2018-09-11T14:24:22.671Z,23.30
2018-09-11T14:26:50.892Z,23.40
2018-09-11T14:29:19.071Z,23.40
2018-09-11T14:31:47.291Z,23.40
2018-09-11T14:34:15.492Z,23.40
2018-09-11T14:36:43.972Z,23.40
2018-09-11T14:39:12.244Z,23.40
2018-09-11T14:41:40.467Z,23.30
2018-09-11T14:44:08.651Z,23.30
2018-09-11T14:46:37.014Z,23.30
2018-09-11T14:49:05.380Z,23.30
2018-09-11T14:51:33.547Z,23.30
2018-09-11T14:54:01.799Z,23.30
2018-09-11T14:56:30.139Z,23.30
2018-09-11T14:58:58.362Z,23.30
2018-09-11T15:01:26.559Z,23.30
2018-09-11T15:03:54.737Z,23.30
2018-09-11T15:06:23.040Z,23.30
2018-09-11T15:08:51.280Z,23.30
2018-09-11T15:11:19.826Z,23.30
2018-09-11T15:13:48.417Z,23.20
2018-09-11T15:16:17.089Z,23.20
2018-09-11T15:18:45.930Z,23.20
2018-09-11T15:21:14.488Z,23.20
2018-09-11T15:23:43.050Z,23.20
2018-09-11T15:26:11.579Z,23.20
2018-09-11T15:28:40.107Z,23.10
2018-09-11T15:31:08.591Z,23.10
2018-09-11T15:33:37.109Z,23.10
2018-09-11T15:36:05.619Z,23.10
2018-09-11T15:38:34.071Z,23.10
2018-09-11T15:41:02.551Z,23.10
2018-09-11T15:43:30.781Z,23.00
2018-09-11T15:45:58.976Z,23.00
2018-09-11T15:48:27.180Z,22.90
2018-09-11T15:50:55.496Z,22.90
2018-09-11T15:53:23.690Z,22.90
2018-09-11T15:55:52.186Z,22.80
2018-09-11T15:58:20.380Z,22.80
2018-09-11T16:00:48.985Z,22.80
2018-09-11T16:03:17.265Z,22.80
2018-09-11T16:05:45.493Z,22.80
2018-09-11T16:08:13.726Z,22.70
2018-09-11T16:10:41.905Z,22.70
2018-09-11T16:13:10.115Z,22.60
2018-09-11T16:15:38.337Z,22.60
2018-09-11T16:18:06.524Z,22.60
2018-09-11T16:20:34.724Z,22.60
2018-09-11T16:23:02.965Z,22.50
2018-09-11T16:25:31.315Z,22.40
2018-09-11T16:27:59.492Z,22.50
2018-09-11T16:30:27.692Z,22.40
2018-09-11T16:32:55.907Z,22.40
2018-09-11T16:35:25.012Z,22.30
2018-09-11T16:37:53.188Z,22.30
2018-09-11T16:40:21.490Z,22.30
2018-09-11T16:42:49.678Z,22.30
2018-09-11T16:45:17.988Z,22.10
2018-09-11T16:47:46.863Z,22.00
2018-09-11T16:50:15.152Z,21.90
2018-09-11T16:52:43.410Z,21.80
2018-09-11T16:55:11.770Z,21.70
2018-09-11T16:57:40.025Z,21.60
2018-09-11T17:00:08.228Z,21.60
2018-09-11T17:02:36.503Z,21.50
2018-09-11T17:05:04.878Z,21.60
2018-09-11T17:07:33.068Z,21.50
2018-09-11T17:10:01.276Z,21.50
2018-09-11T17:12:29.469Z,21.40
2018-09-11T17:14:57.733Z,21.40
2018-09-11T17:17:25.833Z,21.40
2018-09-11T17:19:54.040Z,21.30
2018-09-11T17:22:22.260Z,21.30
2018-09-11T17:24:50.441Z,21.30
2018-09-11T17:27:18.784Z,21.20
2018-09-11T17:29:46.939Z,21.20
2018-09-11T17:32:15.147Z,21.20
2018-09-11T17:34:43.349Z,21.20
2018-09-11T17:37:11.794Z,21.20
2018-09-11T17:39:40.127Z,21.10
2018-09-11T17:42:08.514Z,21.10
2018-09-11T17:44:36.774Z,21.00
2018-09-11T17:47:05.169Z,21.00
2018-09-11T17:49:33.416Z,20.90
2018-09-11T17:52:01.861Z,20.90
2018-09-11T17:54:30.395Z,20.80
2018-09-11T17:56:58.900Z,20.80
2018-09-11T17:59:27.381Z,20.80
2018-09-11T18:01:55.732Z,20.80
2018-09-11T18:04:23.958Z,20.80
2018-09-11T18:06:52.334Z,20.80
2018-09-11T18:09:20.581Z,20.80
2018-09-11T18:11:48.803Z,20.80
2018-09-11T18:14:16.975Z,20.70
2018-09-11T18:16:45.190Z,20.70
2018-09-11T18:19:13.376Z,20.70
2018-09-11T18:21:41.600Z,20.60
2018-09-11T18:24:09.814Z,20.60
2018-09-11T18:26:38.012Z,20.60
2018-09-11T18:29:06.200Z,20.60
2018-09-11T18:31:34.428Z,20.60
2018-09-11T18:34:02.670Z,20.50
2018-09-11T18:36:30.922Z,20.50
2018-09-11T18:38:59.061Z,20.50
2018-09-11T18:41:27.280Z,20.40
2018-09-11T18:43:55.493Z,20.40
2018-09-11T18:46:23.685Z,20.30
2018-09-11T18:48:51.888Z,20.30
2018-09-11T18:51:20.220Z,20.30
2018-09-11T18:53:48.469Z,20.20
2018-09-11T18:56:16.680Z,20.20
2018-09-11T18:58:44.912Z,20.20
2018-09-11T19:01:13.132Z,20.10
2018-09-11T19:03:41.345Z,20.10
2018-09-11T19:06:09.601Z,20.00
2018-09-11T19:08:37.853Z,20.00
2018-09-11T19:11:06.167Z,19.90
2018-09-11T19:13:34.316Z,19.90
2018-09-11T19:16:02.644Z,19.80
2018-09-11T19:18:30.915Z,19.80
2018-09-11T19:20:59.167Z,19.80
2018-09-11T19:23:27.408Z,19.70
2018-09-11T19:25:55.726Z,19.60
2018-09-11T19:28:23.932Z,19.60
2018-09-11T19:30:52.181Z,19.50
2018-09-11T19:33:20.656Z,19.50
2018-09-11T19:35:48.975Z,19.50
2018-09-11T19:38:17.191Z,19.50
2018-09-11T19:40:45.385Z,19.50
2018-09-11T19:43:13.560Z,19.40
2018-09-11T19:45:41.857Z,19.40
2018-09-11T19:48:10.237Z,19.40
2018-09-11T19:50:38.519Z,19.40
2018-09-11T19:53:06.700Z,19.40
2018-09-11T19:55:35.016Z,19.30
2018-09-11T19:58:03.237Z,19.30
2018-09-11T20:00:31.441Z,19.30
2018-09-11T20:02:59.692Z,19.30
2018-09-11T20:05:27.904Z,19.30
2018-09-11T20:07:56.363Z,19.30
2018-09-11T20:10:24.589Z,19.30
2018-09-11T20:12:53.155Z,19.20
2018-09-11T20:15:21.489Z,19.20
2018-09-11T20:17:49.736Z,19.20
2018-09-11T20:20:17.965Z,19.30
2018-09-11T20:22:46.219Z,19.30
2018-09-11T20:25:14.538Z,19.30
2018-09-11T20:27:42.746Z,19.20
2018-09-11T20:30:11.158Z,19.20
2018-09-11T20:32:39.361Z,19.20
2018-09-11T20:35:07.636Z,19.20
2018-09-11T20:37:36.036Z,19.20
2018-09-11T20:40:04.116Z,19.20
2018-09-11T20:42:32.316Z,19.20
2018-09-11T20:45:00.543Z,19.20
2018-09-11T20:47:28.748Z,19.10
2018-09-11T20:49:56.960Z,19.10
2018-09-11T20:52:25.194Z,19.10
2018-09-11T20:54:53.432Z,19.10
2018-09-11T20:57:21.780Z,19.10
2018-09-11T20:59:49.998Z,19.10
2018-09-11T21:02:18.199Z,19.10
2018-09-11T21:04:46.404Z,19.10
2018-09-11T21:07:14.721Z,19.10
2018-09-11T21:09:42.920Z,19.10
2018-09-11T21:12:11.122Z,19.10
2018-09-11T21:14:39.336Z,19.10
2018-09-11T21:17:07.663Z,19.10
2018-09-11T21:19:35.912Z,19.10
2018-09-11T21:22:04.169Z,19.10
2018-09-11T21:24:32.496Z,19.10
2018-09-11T21:27:00.881Z,19.10
2018-09-11T21:29:29.108Z,19.10
2018-09-11T21:31:57.421Z,19.10
2018-09-11T21:34:25.717Z,19.10
2018-09-11T21:36:54.092Z,19.10
2018-09-11T21:39:22.308Z,19.10
2018-09-11T21:41:50.497Z,19.10
2018-09-11T21:44:18.711Z,19.10
2018-09-11T21:46:47.067Z,19.10
2018-09-11T21:49:15.269Z,19.10
2018-09-11T21:51:43.491Z,19.10
2018-09-11T21:54:11.692Z,19.10
2018-09-11T21:56:40.093Z,19.10
2018-09-11T21:59:08.292Z,19.10
2018-09-11T22:01:42.028Z,19.10
2018-09-11T22:04:17.172Z,19.10
2018-09-11T22:06:45.384Z,19.10
2018-09-11T22:09:13.631Z,19.10
2018-09-11T22:11:41.864Z,19.10
2018-09-11T22:14:10.592Z,19.10
2018-09-11T22:16:39.422Z,19.00
2018-09-11T22:19:08.103Z,19.00
2018-09-11T22:21:36.791Z,19.00
2018-09-11T22:24:05.140Z,19.00
2018-09-11T22:26:34.015Z,19.00
2018-09-11T22:29:02.244Z,19.00
2018-09-11T22:31:30.731Z,19.00
2018-09-11T22:33:58.947Z,19.00
2018-09-11T22:36:27.161Z,19.00
2018-09-11T22:38:55.453Z,19.00
2018-09-11T22:41:23.713Z,19.00
2018-09-11T22:43:52.468Z,19.00
2018-09-11T22:46:21.077Z,19.00
2018-09-11T22:48:49.285Z,19.00
2018-09-11T22:51:17.488Z,19.00
2018-09-11T22:53:45.667Z,19.00
2018-09-11T22:56:13.913Z,19.00
2018-09-11T22:58:42.107Z,19.00
2018-09-11T23:01:10.300Z,19.00
2018-09-11T23:03:38.464Z,19.00
2018-09-11T23:06:06.718Z,19.00
2018-09-11T23:08:35.013Z,19.00
2018-09-11T23:11:03.196Z,19.00
2018-09-11T23:13:31.440Z,19.00
2018-09-11T23:15:59.639Z,19.00
2018-09-11T23:18:27.852Z,19.00
2018-09-11T23:20:56.132Z,19.00
2018-09-11T23:23:24.345Z,19.00
2018-09-11T23:25:52.575Z,19.00
2018-09-11T23:28:20.833Z,19.00
2018-09-11T23:30:49.033Z,19.00
2018-09-11T23:33:17.259Z,19.00
2018-09-11T23:35:45.458Z,19.00
2018-09-11T23:38:13.671Z,19.00
2018-09-11T23:40:41.860Z,19.00
2018-09-11T23:43:10.065Z,19.00
2018-09-11T23:45:38.301Z,19.00
2018-09-11T23:48:06.534Z,19.00
2018-09-11T23:50:34.832Z,19.00
2018-09-11T23:53:03.055Z,19.00
2018-09-11T23:55:31.360Z,19.00
2018-09-11T23:57:59.592Z,19.00
